地図

経路データ

SID SEASON NUMBER BASIN SUBBASIN NAME ISO_TIME NATURE LAT LON WMO_WIND WMO_PRES WMO_AGENCY TRACK_TYPE DIST2LAND LANDFALL IFLAG USA_AGENCY USA_ATCF_ID USA_LAT USA_LON USA_RECORD USA_STATUS USA_WIND USA_PRES USA_SSHS USA_R34_NE USA_R34_SE USA_R34_SW USA_R34_NW USA_R50_NE USA_R50_SE USA_R50_SW USA_R50_NW USA_R64_NE USA_R64_SE USA_R64_SW USA_R64_NW USA_POCI USA_ROCI USA_RMW USA_EYE TOKYO_LAT TOKYO_LON TOKYO_GRADE TOKYO_WIND TOKYO_PRES TOKYO_R50_DIR TOKYO_R50_LONG TOKYO_R50_SHORT TOKYO_R30_DIR TOKYO_R30_LONG TOKYO_R30_SHORT TOKYO_LAND CMA_LAT CMA_LON CMA_CAT CMA_WIND CMA_PRES HKO_LAT HKO_LON HKO_CAT HKO_WIND HKO_PRES NEWDELHI_LAT NEWDELHI_LON NEWDELHI_GRADE NEWDELHI_WIND NEWDELHI_PRES NEWDELHI_CI NEWDELHI_DP NEWDELHI_POCI REUNION_LAT REUNION_LON REUNION_TYPE REUNION_WIND REUNION_PRES REUNION_TNUM REUNION_CI REUNION_RMW REUNION_R34_NE REUNION_R34_SE REUNION_R34_SW REUNION_R34_NW REUNION_R50_NE REUNION_R50_SE REUNION_R50_SW REUNION_R50_NW REUNION_R64_NE REUNION_R64_SE REUNION_R64_SW REUNION_R64_NW BOM_LAT BOM_LON BOM_TYPE BOM_WIND BOM_PRES BOM_TNUM BOM_CI BOM_RMW BOM_R34_NE BOM_R34_SE BOM_R34_SW BOM_R34_NW BOM_R50_NE BOM_R50_SE BOM_R50_SW BOM_R50_NW BOM_R64_NE BOM_R64_SE BOM_R64_SW BOM_R64_NW BOM_ROCI BOM_POCI BOM_EYE BOM_POS_METHOD BOM_PRES_METHOD NADI_LAT NADI_LON NADI_CAT NADI_WIND NADI_PRES WELLINGTON_LAT WELLINGTON_LON WELLINGTON_WIND WELLINGTON_PRES DS824_LAT DS824_LON DS824_STAGE DS824_WIND DS824_PRES TD9636_LAT TD9636_LON TD9636_STAGE TD9636_WIND TD9636_PRES TD9635_LAT TD9635_LON TD9635_WIND TD9635_PRES TD9635_ROCI NEUMANN_LAT NEUMANN_LON NEUMANN_CLASS NEUMANN_WIND NEUMANN_PRES MLC_LAT MLC_LON MLC_CLASS MLC_WIND MLC_PRES USA_GUST BOM_GUST BOM_GUST_PER REUNION_GUST REUNION_GUST_PER USA_SEAHGT USA_SEARAD_NE USA_SEARAD_SE USA_SEARAD_SW USA_SEARAD_NW STORM_SPEED STORM_DIR
1913124N11132 1913 27 WP MM NOT_NAMED 1913-05-04 10:00:00 NR 11.1000 131.600 main 628 587 __________O___ -1 11.1000 131.600 7 12 273
1913124N11132 1913 27 WP MM NOT_NAMED 1913-05-04 12:00:00 NR 11.1176 131.198 main 587 524 __________P___ -1 11.1176 131.198 7 12 273
1913124N11132 1913 27 WP MM NOT_NAMED 1913-05-04 15:00:00 NR 11.1431 130.608 main 524 470 __________P___ -1 11.1431 130.608 7 11 273
1913124N11132 1913 27 WP MM NOT_NAMED 1913-05-04 18:00:00 NR 11.1677 130.052 main 470 415 __________P___ -1 11.1677 130.052 7 10 273
1913124N11132 1913 27 WP MM NOT_NAMED 1913-05-04 21:00:00 NR 11.1919 129.551 main 415 393 __________P___ -1 11.1919 129.551 7 10 273
1913124N11132 1913 27 WP MM NOT_NAMED 1913-05-04 22:00:00 NR 11.2000 129.400 main 393 361 __________O___ -1 11.2000 129.400 3 8 273
1913124N11132 1913 27 WP MM NOT_NAMED 1913-05-05 00:00:00 NR 11.2162 129.124 main 361 328 __________P___ -1 11.2162 129.124 3 8 274
1913124N11132 1913 27 WP MM NOT_NAMED 1913-05-05 03:00:00 NR 11.2409 128.760 main 328 285 __________P___ -1 11.2409 128.760 3 7 274
1913124N11132 1913 27 WP MM NOT_NAMED 1913-05-05 06:00:00 NR 11.2661 128.431 main 285 253 __________P___ -1 11.2661 128.431 3 6 275
1913124N11132 1913 27 WP MM NOT_NAMED 1913-05-05 09:00:00 NR 11.2915 128.110 main 253 242 __________P___ -1 11.2915 128.110 3 6 275
1913124N11132 1913 27 WP MM NOT_NAMED 1913-05-05 10:00:00 NR 11.3000 128.000 main 242 220 __________O___ -1 11.3000 128.000 4 7 274
1913124N11132 1913 27 WP MM NOT_NAMED 1913-05-05 12:00:00 NR 11.3139 127.761 main 220 177 __________P___ -1 11.3139 127.761 4 7 273
1913124N11132 1913 27 WP MM NOT_NAMED 1913-05-05 15:00:00 NR 11.3348 127.396 main 177 138 __________P___ -1 11.3348 127.396 4 7 274
1913124N11132 1913 27 WP MM NOT_NAMED 1913-05-05 18:00:00 NR 11.3585 127.021 main 138 98 __________P___ -1 11.3585 127.021 4 8 274
1913124N11132 1913 27 WP MM NOT_NAMED 1913-05-05 21:00:00 NR 11.3882 126.633 main 98 88 __________P___ -1 11.3882 126.633 4 8 275
1913124N11132 1913 27 WP MM NOT_NAMED 1913-05-05 22:00:00 NR 11.4000 126.500 main 88 62 __________O___ -1 11.4000 126.500 4 8 274
1913124N11132 1913 27 WP MM NOT_NAMED 1913-05-06 00:00:00 NR 11.4197 126.225 main 62 24 __________P___ -1 11.4197 126.225 4 8 275
1913124N11132 1913 27 WP MM NOT_NAMED 1913-05-06 03:00:00 NR 11.4555 125.801 main 24 0 __________P___ -1 11.4555 125.801 4 8 276
1913124N11132 1913 27 WP MM NOT_NAMED 1913-05-06 06:00:00 NR 11.5041 125.369 main 0 0 __________P___ -1 11.5041 125.369 4 9 278
1913124N11132 1913 27 WP MM NOT_NAMED 1913-05-06 09:00:00 NR 11.5720 124.941 main 10 10 __________P___ -1 11.5720 124.941 4 9 280
1913124N11132 1913 27 WP MM NOT_NAMED 1913-05-06 10:00:00 NR 11.6000 124.800 main 11 11 __________O___ -1 11.6000 124.800 4 8 284
1913124N11132 1913 27 WP MM NOT_NAMED 1913-05-06 12:00:00 NR 11.6713 124.528 main 24 10 __________P___ -1 11.6713 124.528 4 8 287
1913124N11132 1913 27 WP MM NOT_NAMED 1913-05-06 15:00:00 NR 11.7974 124.126 main 10 0 __________P___ -1 11.7974 124.126 4 8 288
1913124N11132 1913 27 WP MM NOT_NAMED 1913-05-06 18:00:00 NR 11.9326 123.728 main 0 0 __________P___ -1 11.9326 123.728 4 8 289
1913124N11132 1913 27 WP MM NOT_NAMED 1913-05-06 21:00:00 NR 12.0613 123.332 main 0 0 __________P___ -1 12.0613 123.332 4 8 288
1913124N11132 1913 27 WP MM NOT_NAMED 1913-05-06 22:00:00 NR 12.1000 123.200 main 10 10 __________O___ -1 12.1000 123.200 4 8 284
1913124N11132 1913 27 WP MM NOT_NAMED 1913-05-07 00:00:00 NR 12.1587 122.931 main 32 32 __________P___ -1 12.1587 122.931 4 8 282
1913124N11132 1913 27 WP MM NOT_NAMED 1913-05-07 03:00:00 NR 12.2341 122.526 main 55 49 __________P___ -1 12.2341 122.526 4 8 280
1913124N11132 1913 27 WP MM NOT_NAMED 1913-05-07 06:00:00 NR 12.3028 122.125 main 55 24 __________P___ -1 12.3028 122.125 4 8 280
1913124N11132 1913 27 WP MM NOT_NAMED 1913-05-07 09:00:00 NR 12.3741 121.730 main 24 21 __________P___ -1 12.3741 121.730 4 8 281
1913124N11132 1913 27 WP MM NOT_NAMED 1913-05-07 10:00:00 NR 12.4000 121.600 main 21 0 __________O___ -1 12.4000 121.600 4 8 282
1913124N11132 1913 27 WP MM NOT_NAMED 1913-05-07 12:00:00 NR 12.4530 121.339 main 0 0 __________P___ -1 12.4530 121.339 4 8 282
1913124N11132 1913 27 WP MM NOT_NAMED 1913-05-07 15:00:00 NR 12.5387 120.954 main 0 0 __________P___ -1 12.5387 120.954 4 8 284
1913124N11132 1913 27 WP MM NOT_NAMED 1913-05-07 18:00:00 NR 12.6374 120.579 main 24 24 __________P___ -1 12.6374 120.579 4 8 287
1913124N11132 1913 27 WP MM NOT_NAMED 1913-05-07 21:00:00 NR 12.7553 120.217 main 55 55 __________P___ -1 12.7553 120.217 4 7 289
1913124N11132 1913 27 WP MM NOT_NAMED 1913-05-07 22:00:00 NR 12.8000 120.100 main 62 62 __________O___ -1 12.8000 120.100 4 7 291
1913124N11132 1913 27 WP MM NOT_NAMED 1913-05-08 00:00:00 NR 12.8889 119.867 main 70 77 __________P___ -1 12.8889 119.867 4 7 293
1913124N11132 1913 27 WP MM NOT_NAMED 1913-05-08 03:00:00 NR 13.0411 119.529 main 97 92 __________P___ -1 13.0411 119.529 4 7 297
1913124N11132 1913 27 WP MM NOT_NAMED 1913-05-08 06:00:00 NR 13.2186 119.206 main 121 119 __________P___ -1 13.2186 119.206 4 7 302
1913124N11132 1913 27 WP MM NOT_NAMED 1913-05-08 09:00:00 NR 13.4245 118.899 main 151 151 __________P___ -1 13.4245 118.899 4 7 305
1913124N11132 1913 27 WP MM NOT_NAMED 1913-05-08 10:00:00 NR 13.5000 118.800 main 162 162 __________O___ -1 13.5000 118.800 4 8 305
1913124N11132 1913 27 WP MM NOT_NAMED 1913-05-08 12:00:00 NR 13.6501 118.569 main 186 197 __________P___ -1 13.6501 118.569 4 8 306
1913124N11132 1913 27 WP MM NOT_NAMED 1913-05-08 15:00:00 NR 13.9002 118.234 main 228 223 __________P___ -1 13.9002 118.234 4 8 311
1913124N11132 1913 27 WP MM NOT_NAMED 1913-05-08 18:00:00 NR 14.1801 117.946 main 246 243 __________P___ -1 14.1801 117.946 4 8 321
1913124N11132 1913 27 WP MM NOT_NAMED 1913-05-08 21:00:00 NR 14.4900 117.742 main 257 252 __________P___ -1 14.4900 117.742 4 7 330
1913124N11132 1913 27 WP MM NOT_NAMED 1913-05-08 22:00:00 NR 14.6000 117.700 main 252 245 __________O___ -1 14.6000 117.700 4 7 344
1913124N11132 1913 27 WP MM NOT_NAMED 1913-05-09 00:00:00 NR 14.8322 117.646 main 255 232 __________P___ -1 14.8322 117.646 4 7 355
1913124N11132 1913 27 WP MM NOT_NAMED 1913-05-09 03:00:00 NR 15.2059 117.654 main 232 208 __________P___ -1 15.2059 117.654 4 8 8
1913124N11132 1913 27 WP MM NOT_NAMED 1913-05-09 06:00:00 NR 15.5937 117.753 main 208 192 __________P___ -1 15.5937 117.753 4 8 19
1913124N11132 1913 27 WP MM NOT_NAMED 1913-05-09 09:00:00 NR 15.9767 117.928 main 192 181 __________P___ -1 15.9767 117.928 4 8 25
1913124N11132 1913 27 WP MM NOT_NAMED 1913-05-09 10:00:00 NR 16.1000 118.000 main 182 172 __________O___ -1 16.1000 118.000 4 8 30
1913124N11132 1913 27 WP MM NOT_NAMED 1913-05-09 12:00:00 NR 16.3360 118.146 main 174 153 __________P___ -1 16.3360 118.146 4 9 35
1913124N11132 1913 27 WP MM NOT_NAMED 1913-05-09 15:00:00 NR 16.6776 118.421 main 155 135 __________P___ -1 16.6776 118.421 4 9 41
1913124N11132 1913 27 WP MM NOT_NAMED 1913-05-09 18:00:00 NR 17.0014 118.743 main 140 131 __________P___ -1 17.0014 118.743 4 9 45
1913124N11132 1913 27 WP MM NOT_NAMED 1913-05-09 21:00:00 NR 17.3042 119.086 main 131 118 __________P___ -1 17.3042 119.086 4 9 48
1913124N11132 1913 27 WP MM NOT_NAMED 1913-05-09 22:00:00 NR 17.4000 119.200 main 118 95 __________O___ -1 17.4000 119.200 4 8 48
1913124N11132 1913 27 WP MM NOT_NAMED 1913-05-10 00:00:00 NR 17.5836 119.406 main 95 67 __________P___ -1 17.5836 119.406 4 8 48
1913124N11132 1913 27 WP MM NOT_NAMED 1913-05-10 03:00:00 NR 17.8403 119.721 main 67 52 __________P___ -1 17.8403 119.721 4 8 51
1913124N11132 1913 27 WP MM NOT_NAMED 1913-05-10 06:00:00 NR 18.0827 120.046 main 52 21 __________P___ -1 18.0827 120.046 4 8 53
1913124N11132 1913 27 WP MM NOT_NAMED 1913-05-10 09:00:00 NR 18.3203 120.384 main 21 10 __________P___ -1 18.3203 120.384 4 8 54
1913124N11132 1913 27 WP MM NOT_NAMED 1913-05-10 10:00:00 NR 18.4000 120.500 main 10 0 __________O___ -1 18.4000 120.500 4 8 53
1913124N11132 1913 27 WP MM NOT_NAMED 1913-05-10 12:00:00 NR 18.5744 120.736 main 10 0 __________P___ -1 18.5744 120.736 4 9 53
1913124N11132 1913 27 WP MM NOT_NAMED 1913-05-10 15:00:00 NR 18.8363 121.103 main 30 39 __________P___ -1 18.8363 121.103 4 9 54
1913124N11132 1913 27 WP MM NOT_NAMED 1913-05-10 18:00:00 NR 19.0902 121.481 main 67 67 __________P___ -1 19.0902 121.481 4 9 56
1913124N11132 1913 27 WP MM NOT_NAMED 1913-05-10 21:00:00 NR 19.3266 121.869 main 102 102 __________P___ -1 19.3266 121.869 4 9 58
1913124N11132 1913 27 WP MM NOT_NAMED 1913-05-10 22:00:00 NR 19.4000 122.000 main 112 111 __________O___ -1 19.4000 122.000 2 9 59
1913124N11132 1913 27 WP MM NOT_NAMED 1913-05-11 00:00:00 NR 19.5493 122.256 main 123 134 __________P___ -1 19.5493 122.256 2 8 60
1913124N11132 1913 27 WP MM NOT_NAMED 1913-05-11 03:00:00 NR 19.7548 122.645 main 159 162 __________P___ -1 19.7548 122.645 2 8 63
1913124N11132 1913 27 WP MM NOT_NAMED 1913-05-11 06:00:00 NR 19.9299 123.045 main 183 187 __________P___ -1 19.9299 123.045 2 8 68
1913124N11132 1913 27 WP MM NOT_NAMED 1913-05-11 09:00:00 NR 20.0653 123.459 main 228 228 __________P___ -1 20.0653 123.459 2 8 72
1913124N11132 1913 27 WP MM NOT_NAMED 1913-05-11 10:00:00 NR 20.1000 123.600 main 234 234 __________O___ -1 20.1000 123.600 2 8 78
1913124N11132 1913 27 WP MM NOT_NAMED 1913-05-11 12:00:00 NR 20.1527 123.888 main 262 262 __________P___ -1 20.1527 123.888 2 8 82
1913124N11132 1913 27 WP MM NOT_NAMED 1913-05-11 15:00:00 NR 20.1965 124.332 main 290 298 __________P___ -1 20.1965 124.332 2 8 86
1913124N11132 1913 27 WP MM NOT_NAMED 1913-05-11 18:00:00 NR 20.2092 124.786 main 330 330 __________P___ -1 20.2092 124.786 2 9 90
1913124N11132 1913 27 WP MM NOT_NAMED 1913-05-11 21:00:00 NR 20.2037 125.246 main 364 373 __________P___ -1 20.2037 125.246 2 9 91
1913124N11132 1913 27 WP MM NOT_NAMED 1913-05-11 22:00:00 NR 20.2000 125.400 main 382 __________O___ -1 20.2000 125.400 2 9 91

デジタル台風データ・検索

IBTrACS Databaseについて

本データベースは、米国NOAAが公開する1842年以降の世界の熱帯低気圧のベストトラックデータアーカイブInternational Best Track Archive for Climate Stewardship (IBTrACS)を、ウェブで閲覧しやすい形式に変換したものです。

最終更新日:2021-10-08